Time;durP1;ratioP1;P1;durP2;ratioP2;P2;SDS_P1;SDS_P2;PMS_P1;PMS_P2;Temp;Humidity;BMP_temperature;BMP_pressure;BME280_temperature;BME280_humidity;BME280_pressure;Samples;Min_cycle;Max_cycle;Signal;HPM_P1;HPM_P2
2024/02/02 00:00:08;;;;;;;9.07;6.00;;;3.30;99.90;;;;;;5009599;28;20268;-61
2024/02/02 00:02:37;;;;;;;22.60;7.07;;;3.20;99.90;;;;;;5010007;28;20204;-60
2024/02/02 00:05:04;;;;;;;10.83;6.87;;;3.20;99.90;;;;;;5007685;28;20455;-59
2024/02/02 00:07:29;;;;;;;13.03;6.30;;;3.20;99.90;;;;;;5008408;28;20460;-59
2024/02/02 00:09:56;;;;;;;11.33;6.10;;;3.10;99.90;;;;;;5011467;28;20521;-60
2024/02/02 00:12:23;;;;;;;50.27;7.73;;;3.10;99.90;;;;;;5009855;28;20187;-60
2024/02/02 00:14:48;;;;;;;11.00;6.10;;;3.10;99.90;;;;;;5005758;28;20434;-60
2024/02/02 00:17:14;;;;;;;10.30;6.40;;;3.10;99.90;;;;;;5008221;28;20423;-60
2024/02/02 00:19:40;;;;;;;9.27;6.53;;;3.00;99.90;;;;;;5011559;28;20821;-60
2024/02/02 00:22:06;;;;;;;10.57;6.13;;;3.00;99.90;;;;;;5010763;28;20423;-61
2024/02/02 00:24:32;;;;;;;28.07;7.67;;;2.90;99.90;;;;;;5008235;28;20208;-60
2024/02/02 00:26:58;;;;;;;76.83;8.80;;;2.90;99.90;;;;;;5005365;28;20872;-61
2024/02/02 00:29:23;;;;;;;22.60;7.47;;;2.90;99.90;;;;;;5004827;28;20193;-60
2024/02/02 00:31:49;;;;;;;14.07;6.37;;;2.90;99.90;;;;;;5011240;28;20184;-60
2024/02/02 00:34:15;;;;;;;8.80;5.60;;;2.90;99.90;;;;;;5005230;28;20224;-60
2024/02/02 00:36:40;;;;;;;27.97;5.53;;;2.90;99.90;;;;;;5008607;28;20193;-59
2024/02/02 00:39:06;;;;;;;21.87;5.10;;;2.80;99.90;;;;;;5001363;28;20695;-61
2024/02/02 00:41:31;;;;;;;15.00;4.83;;;2.80;99.90;;;;;;5010029;28;20187;-60
2024/02/02 00:43:57;;;;;;;32.67;5.80;;;2.80;99.90;;;;;;5008407;28;20211;-59
2024/02/02 00:46:23;;;;;;;12.67;5.13;;;2.70;99.90;;;;;;5005419;28;20205;-58
2024/02/02 00:48:48;;;;;;;18.40;5.87;;;2.70;99.90;;;;;;5003866;28;20215;-60
2024/02/02 00:51:14;;;;;;;35.37;5.70;;;2.60;99.90;;;;;;5011085;28;20183;-59
2024/02/02 00:53:40;;;;;;;14.03;5.37;;;2.60;99.90;;;;;;5006130;28;20828;-59
2024/02/02 00:56:05;;;;;;;6.43;4.83;;;2.50;99.90;;;;;;5008283;28;20177;-58
2024/02/02 00:58:31;;;;;;;9.23;5.60;;;2.60;99.90;;;;;;5007023;28;20227;-60
2024/02/02 01:00:56;;;;;;;8.30;5.33;;;2.60;99.90;;;;;;5004211;28;20263;-60
2024/02/02 01:03:22;;;;;;;16.70;7.10;;;2.60;99.90;;;;;;5004028;28;20181;-59
2024/02/02 01:05:48;;;;;;;34.43;6.20;;;2.50;99.90;;;;;;5008391;28;21919;-59
2024/02/02 01:08:14;;;;;;;32.77;7.57;;;2.50;99.90;;;;;;5008652;28;20200;-59
2024/02/02 01:10:39;;;;;;;64.80;8.50;;;2.50;99.90;;;;;;5008524;28;20176;-59
2024/02/02 01:13:08;;;;;;;22.33;7.23;;;2.40;99.90;;;;;;5006673;28;20438;-60
2024/02/02 01:15:34;;;;;;;164.33;12.00;;;2.40;99.90;;;;;;5007838;28;20639;-60
2024/02/02 01:18:00;;;;;;;102.60;10.10;;;2.40;99.90;;;;;;5004358;28;20458;-60
2024/02/02 01:20:25;;;;;;;101.73;9.80;;;2.30;99.90;;;;;;5003735;28;20664;-59
2024/02/02 01:22:51;;;;;;;55.20;7.93;;;2.30;99.90;;;;;;5008489;28;20435;-60
2024/02/02 01:25:17;;;;;;;118.83;9.23;;;2.30;99.90;;;;;;5004938;28;20590;-59
2024/02/02 01:27:43;;;;;;;28.97;5.47;;;2.30;99.90;;;;;;5004358;28;20207;-60
2024/02/02 01:30:11;;;;;;;10.77;5.00;;;2.30;99.90;;;;;;5005280;28;20234;-60
2024/02/02 01:32:37;;;;;;;9.80;4.93;;;2.30;99.90;;;;;;5010403;28;20418;-59
2024/02/02 01:35:03;;;;;;;10.40;5.43;;;2.30;99.90;;;;;;5007588;28;20485;-59
2024/02/02 01:37:30;;;;;;;10.03;4.73;;;2.30;99.90;;;;;;5005266;28;20219;-60
2024/02/02 01:39:56;;;;;;;5.80;4.23;;;2.30;99.90;;;;;;5004945;28;20292;-60
2024/02/02 01:42:21;;;;;;;10.10;3.70;;;2.30;99.90;;;;;;5009884;28;21082;-59
2024/02/02 01:44:48;;;;;;;6.07;3.60;;;2.20;99.90;;;;;;5002446;28;20184;-59
2024/02/02 01:47:13;;;;;;;10.53;4.20;;;2.20;99.90;;;;;;5008934;28;20257;-60
2024/02/02 01:49:39;;;;;;;6.70;3.50;;;2.10;99.90;;;;;;5004883;28;20536;-59
2024/02/02 01:52:05;;;;;;;7.67;3.73;;;2.10;99.90;;;;;;5008831;28;20186;-59
2024/02/02 01:54:31;;;;;;;5.50;4.40;;;2.10;99.90;;;;;;5006844;28;20231;-61
2024/02/02 01:56:57;;;;;;;10.73;4.70;;;2.10;99.90;;;;;;5006220;28;20453;-59
2024/02/02 01:59:24;;;;;;;13.63;4.30;;;2.10;99.90;;;;;;5002913;28;20965;-60
2024/02/02 02:01:50;;;;;;;7.27;4.97;;;2.10;99.90;;;;;;5003098;28;20280;-58
2024/02/02 02:04:16;;;;;;;9.53;5.20;;;2.10;99.90;;;;;;5008636;28;20430;-59
2024/02/02 02:06:42;;;;;;;9.17;5.37;;;2.10;99.90;;;;;;4999436;28;20462;-59
2024/02/02 02:09:11;;;;;;;10.33;5.37;;;2.10;99.90;;;;;;5008294;28;20451;-59
2024/02/02 02:11:38;;;;;;;5.60;3.90;;;2.10;99.90;;;;;;5008055;28;20499;-60
2024/02/02 02:14:04;;;;;;;6.20;4.60;;;2.10;99.90;;;;;;5003930;28;20439;-59
2024/02/02 02:16:29;;;;;;;6.10;4.80;;;2.10;99.90;;;;;;5006529;28;20442;-60
2024/02/02 02:18:55;;;;;;;5.53;4.50;;;2.10;99.90;;;;;;5008305;28;20199;-60
2024/02/02 02:21:24;;;;;;;6.33;4.90;;;2.10;99.90;;;;;;5007206;28;20181;-60
2024/02/02 02:23:50;;;;;;;6.27;4.50;;;2.10;99.90;;;;;;5008618;28;20175;-59
2024/02/02 02:26:17;;;;;;;4.30;3.90;;;2.10;99.90;;;;;;5008205;28;20470;-59
2024/02/02 02:28:44;;;;;;;10.00;5.20;;;2.10;99.90;;;;;;5003250;28;20453;-60
2024/02/02 02:31:14;;;;;;;5.10;4.17;;;2.10;99.90;;;;;;5008701;28;20403;-60
2024/02/02 02:33:40;;;;;;;5.87;3.93;;;2.10;99.90;;;;;;5003988;28;20443;-60
2024/02/02 02:36:07;;;;;;;6.30;4.30;;;2.10;99.90;;;;;;5007790;28;20423;-59
2024/02/02 02:38:33;;;;;;;6.73;5.00;;;2.10;99.90;;;;;;5008295;28;20450;-59
2024/02/02 02:40:59;;;;;;;6.77;5.00;;;2.10;99.90;;;;;;5007991;28;20446;-60
2024/02/02 02:43:27;;;;;;;5.67;3.90;;;2.20;99.90;;;;;;5005994;28;20431;-60
2024/02/02 02:45:53;;;;;;;5.23;4.07;;;2.20;99.90;;;;;;5006121;28;20211;-60
2024/02/02 02:48:19;;;;;;;4.90;4.20;;;2.20;99.90;;;;;;5007500;28;20442;-59
2024/02/02 02:50:45;;;;;;;5.73;4.50;;;2.20;99.90;;;;;;5005754;28;20431;-60
2024/02/02 02:53:10;;;;;;;7.73;5.00;;;2.20;99.90;;;;;;5007512;28;20171;-59
2024/02/02 02:55:36;;;;;;;11.40;6.27;;;2.20;99.90;;;;;;5008652;28;20204;-61
2024/02/02 02:58:01;;;;;;;11.77;5.90;;;2.20;99.90;;;;;;5006951;28;20252;-60
2024/02/02 03:00:28;;;;;;;10.80;7.23;;;2.20;99.90;;;;;;5006356;28;20916;-60
2024/02/02 03:02:57;;;;;;;11.07;6.10;;;2.20;99.90;;;;;;5006986;28;20210;-59
2024/02/02 03:05:23;;;;;;;10.93;6.00;;;2.20;99.90;;;;;;5005579;28;20467;-59
2024/02/02 03:07:49;;;;;;;9.97;4.70;;;2.10;99.90;;;;;;5006471;28;20461;-59
2024/02/02 03:10:15;;;;;;;6.73;5.03;;;2.10;99.90;;;;;;5006802;28;20438;-59
2024/02/02 03:12:40;;;;;;;7.53;4.20;;;2.10;99.90;;;;;;5008631;28;20625;-59
2024/02/02 03:15:06;;;;;;;7.80;4.53;;;2.10;99.90;;;;;;5006328;28;20221;-60
2024/02/02 03:17:32;;;;;;;9.93;5.60;;;2.10;99.90;;;;;;5003006;28;20218;-59
2024/02/02 03:19:57;;;;;;;9.00;4.87;;;2.20;99.90;;;;;;5004401;28;20187;-58
2024/02/02 03:22:23;;;;;;;9.17;5.67;;;2.20;99.90;;;;;;5000906;28;20192;-59
2024/02/02 03:24:49;;;;;;;8.40;5.97;;;2.20;99.90;;;;;;4998986;28;20180;-59
2024/02/02 03:27:14;;;;;;;12.60;5.60;;;2.10;99.90;;;;;;5004803;28;20699;-59
2024/02/02 03:29:40;;;;;;;34.57;7.53;;;2.10;99.90;;;;;;5001986;28;20179;-59
2024/02/02 03:32:06;;;;;;;34.60;6.90;;;2.10;99.90;;;;;;5010661;28;20176;-59
2024/02/02 03:34:31;;;;;;;20.73;6.40;;;2.00;99.90;;;;;;5009855;28;20176;-58
2024/02/02 03:36:57;;;;;;;8.90;6.37;;;1.90;99.90;;;;;;5011165;28;20579;-59
2024/02/02 03:39:22;;;;;;;18.23;5.90;;;1.90;99.90;;;;;;5009611;28;20674;-59
2024/02/02 03:41:49;;;;;;;10.73;6.10;;;1.80;99.90;;;;;;5011887;28;20176;-59
2024/02/02 03:44:15;;;;;;;10.63;6.40;;;1.80;99.90;;;;;;5005599;28;20172;-59
2024/02/02 03:46:40;;;;;;;15.23;6.13;;;1.80;99.90;;;;;;5007901;28;21015;-60
2024/02/02 03:49:06;;;;;;;9.50;5.77;;;1.70;99.90;;;;;;5009107;28;20196;-60
2024/02/02 03:51:31;;;;;;;32.90;6.57;;;1.70;99.90;;;;;;5011143;28;20177;-59
2024/02/02 03:53:57;;;;;;;9.83;6.40;;;1.70;99.90;;;;;;5012085;28;20653;-59
2024/02/02 03:56:23;;;;;;;12.30;6.37;;;1.70;99.90;;;;;;5006137;28;20197;-59
2024/02/02 03:58:48;;;;;;;48.87;7.63;;;1.70;99.90;;;;;;5008561;28;20208;-60
2024/02/02 04:01:14;;;;;;;30.50;6.60;;;1.70;99.90;;;;;;5009869;28;20185;-60
2024/02/02 04:03:39;;;;;;;13.00;5.60;;;1.70;99.90;;;;;;5007984;28;20198;-60
2024/02/02 04:06:05;;;;;;;8.10;5.07;;;1.70;99.90;;;;;;5009697;28;20196;-61
2024/02/02 04:08:31;;;;;;;7.17;4.83;;;1.70;99.90;;;;;;5007664;28;20195;-60
2024/02/02 04:10:57;;;;;;;7.83;5.37;;;1.80;99.90;;;;;;5004021;28;20432;-60
2024/02/02 04:13:22;;;;;;;7.23;5.13;;;1.80;99.90;;;;;;5011260;28;20249;-59
2024/02/02 04:15:49;;;;;;;10.10;6.27;;;1.90;99.90;;;;;;5011994;28;20192;-59
2024/02/02 04:18:14;;;;;;;6.57;5.20;;;1.90;99.90;;;;;;5010746;28;20196;-58
2024/02/02 04:20:40;;;;;;;9.67;5.50;;;1.90;99.90;;;;;;5006920;28;20435;-61
2024/02/02 04:23:06;;;;;;;11.60;6.10;;;1.90;99.90;;;;;;5008289;28;20278;-59
2024/02/02 04:25:31;;;;;;;21.00;5.60;;;1.90;99.90;;;;;;5007074;28;20200;-60
2024/02/02 04:27:57;;;;;;;8.43;5.67;;;1.90;99.90;;;;;;5005460;28;20192;-60
2024/02/02 04:30:23;;;;;;;8.37;5.17;;;1.90;99.90;;;;;;5010453;28;20555;-60
2024/02/02 04:32:48;;;;;;;7.43;5.03;;;1.80;99.90;;;;;;5005191;28;20708;-60
2024/02/02 04:35:14;;;;;;;5.10;4.37;;;1.90;99.90;;;;;;5001983;28;20179;-59
2024/02/02 04:37:40;;;;;;;7.37;5.10;;;1.90;99.90;;;;;;5004363;28;20217;-59
2024/02/02 04:40:07;;;;;;;7.43;4.80;;;1.90;99.90;;;;;;5002286;28;20187;-60
2024/02/02 04:42:33;;;;;;;17.27;8.50;;;1.90;99.90;;;;;;5010562;28;20189;-61
2024/02/02 04:44:58;;;;;;;38.13;8.20;;;2.00;99.90;;;;;;5005612;28;20449;-60
2024/02/02 04:47:24;;;;;;;15.20;6.40;;;2.00;99.90;;;;;;5008630;28;20590;-60
2024/02/02 04:49:50;;;;;;;30.13;6.67;;;1.90;99.90;;;;;;5010980;28;20211;-59
2024/02/02 04:52:15;;;;;;;50.47;7.80;;;1.90;99.90;;;;;;5003453;28;20196;-59
2024/02/02 04:54:41;;;;;;;14.63;6.30;;;1.90;99.90;;;;;;5007176;28;20185;-59
2024/02/02 04:57:06;;;;;;;56.07;10.30;;;1.80;99.90;;;;;;5008231;28;20200;-60
2024/02/02 04:59:33;;;;;;;28.27;9.30;;;1.80;99.90;;;;;;5005069;28;20283;-60
2024/02/02 05:01:58;;;;;;;22.93;7.70;;;1.80;99.90;;;;;;4999701;28;20183;-58
2024/02/02 05:04:25;;;;;;;20.40;7.10;;;1.80;99.90;;;;;;5007033;28;20531;-59
2024/02/02 05:06:50;;;;;;;15.30;6.40;;;1.80;99.90;;;;;;5006008;28;20211;-59
2024/02/02 05:09:16;;;;;;;11.23;6.77;;;1.80;99.90;;;;;;5008336;28;20964;-58
2024/02/02 05:11:42;;;;;;;11.27;6.70;;;1.80;99.90;;;;;;5008531;28;20175;-57
2024/02/02 05:14:07;;;;;;;8.80;6.37;;;1.80;99.90;;;;;;4997907;28;20177;-64
2024/02/02 05:16:33;;;;;;;10.33;6.00;;;1.80;99.90;;;;;;5001227;28;20367;-60
2024/02/02 05:18:58;;;;;;;10.53;6.23;;;1.90;99.90;;;;;;5004981;28;20709;-60
2024/02/02 05:21:24;;;;;;;9.23;6.33;;;1.90;99.90;;;;;;4999628;28;20185;-59
2024/02/02 05:23:50;;;;;;;12.40;7.20;;;1.90;99.90;;;;;;5003027;28;20183;-56
2024/02/02 05:26:17;;;;;;;11.40;7.57;;;1.90;99.90;;;;;;4997504;28;20337;-58
2024/02/02 05:28:43;;;;;;;11.07;6.90;;;1.90;99.90;;;;;;5006685;28;20215;-60
2024/02/02 05:31:09;;;;;;;12.20;6.90;;;1.90;99.90;;;;;;5004422;28;20926;-59
2024/02/02 05:33:34;;;;;;;14.00;6.80;;;1.90;99.90;;;;;;5008104;28;20427;-59
2024/02/02 05:36:01;;;;;;;12.47;7.33;;;1.80;99.90;;;;;;4993980;28;20181;-59
2024/02/02 05:38:26;;;;;;;13.60;7.80;;;1.80;99.90;;;;;;4997255;28;20447;-59
2024/02/02 05:40:52;;;;;;;12.27;7.13;;;1.80;99.90;;;;;;5032043;23;21177;-53
2024/02/02 05:43:18;;;;;;;11.17;6.73;;;1.80;99.90;;;;;;5018973;28;20198;-54
2024/02/02 05:45:43;;;;;;;10.20;6.70;;;1.80;99.90;;;;;;5028268;28;20245;-52
2024/02/02 05:48:09;;;;;;;10.70;6.80;;;1.80;99.90;;;;;;5020909;28;20643;-54
2024/02/02 05:50:35;;;;;;;9.87;6.70;;;1.80;99.90;;;;;;5027631;28;20647;-56
2024/02/02 05:53:01;;;;;;;11.33;6.83;;;1.80;99.90;;;;;;5023285;28;20639;-58
2024/02/02 05:55:26;;;;;;;10.07;6.53;;;1.80;99.90;;;;;;5024167;28;20180;-54
2024/02/02 05:57:52;;;;;;;11.20;7.07;;;1.70;99.90;;;;;;5022531;28;20500;-53
2024/02/02 06:00:18;;;;;;;11.20;7.17;;;1.80;99.90;;;;;;5026337;28;20202;-54
2024/02/02 06:02:44;;;;;;;11.30;6.23;;;1.80;99.90;;;;;;5022415;28;20187;-54
2024/02/02 06:05:10;;;;;;;12.30;7.40;;;1.80;99.90;;;;;;5017608;28;20461;-52
2024/02/02 06:07:36;;;;;;;12.03;6.80;;;1.80;99.90;;;;;;5017812;28;20438;-53
2024/02/02 06:10:02;;;;;;;13.50;7.03;;;1.80;99.90;;;;;;5019958;28;20226;-54
2024/02/02 06:12:27;;;;;;;11.73;6.30;;;1.80;99.90;;;;;;5022392;28;20269;-56
2024/02/02 06:14:53;;;;;;;11.97;7.90;;;1.80;99.90;;;;;;5024128;28;20251;-55
2024/02/02 06:17:18;;;;;;;10.57;6.23;;;1.80;99.90;;;;;;5022240;28;20279;-54
2024/02/02 06:19:44;;;;;;;10.00;6.60;;;1.80;99.90;;;;;;5018335;28;20186;-53
2024/02/02 06:22:09;;;;;;;13.87;7.30;;;1.80;99.90;;;;;;5025534;28;20197;-55
2024/02/02 06:24:35;;;;;;;11.63;7.53;;;1.80;99.90;;;;;;5023408;28;20183;-52
2024/02/02 06:27:01;;;;;;;14.00;7.03;;;1.80;99.90;;;;;;5024533;28;20211;-55
2024/02/02 06:29:26;;;;;;;12.70;6.93;;;1.80;99.90;;;;;;5020800;28;20606;-53
2024/02/02 06:31:52;;;;;;;10.83;7.37;;;1.80;99.90;;;;;;5020725;28;20202;-53
2024/02/02 06:34:18;;;;;;;16.27;7.40;;;1.80;99.90;;;;;;5017953;28;20176;-55
2024/02/02 06:36:43;;;;;;;13.80;7.83;;;1.70;99.90;;;;;;5022641;28;20274;-49
2024/02/02 06:39:09;;;;;;;16.53;7.67;;;1.80;99.90;;;;;;5022210;28;20176;-50
2024/02/02 06:41:34;;;;;;;13.70;6.90;;;1.80;99.90;;;;;;5017033;28;20277;-55
2024/02/02 06:44:01;;;;;;;15.60;8.83;;;1.80;99.90;;;;;;5019783;28;20180;-57
2024/02/02 06:46:26;;;;;;;17.37;8.57;;;1.70;99.90;;;;;;5024521;28;20199;-54
2024/02/02 06:48:52;;;;;;;14.10;7.80;;;1.70;99.90;;;;;;5020659;28;20414;-54
2024/02/02 06:51:18;;;;;;;16.47;7.73;;;1.70;99.90;;;;;;5022359;28;20814;-54
2024/02/02 06:53:44;;;;;;;23.87;8.93;;;1.70;99.90;;;;;;5022198;28;20187;-55
2024/02/02 06:56:46;;;;;;;14.77;8.60;;;1.80;99.90;;;;;;5021726;28;20187;-57
2024/02/02 06:59:12;;;;;;;12.00;8.00;;;1.80;99.90;;;;;;4946969;28;20437;-52
2024/02/02 07:01:38;;;;;;;52.60;29.03;;;1.80;99.90;;;;;;5009927;28;20428;-56
2024/02/02 07:04:11;;;;;;;48.83;27.17;;;1.80;99.90;;;;;;5020575;28;21913;-54
2024/02/02 07:06:37;;;;;;;25.37;15.10;;;1.90;99.90;;;;;;5022124;28;20476;-56
2024/02/02 07:09:19;;;;;;;24.53;11.43;;;1.90;99.90;;;;;;5020322;28;20429;-56
2024/02/02 07:11:47;;;;;;;22.20;12.67;;;1.90;99.90;;;;;;5022785;28;20972;-54
2024/02/02 07:14:40;;;;;;;18.20;9.50;;;1.90;99.90;;;;;;5021904;28;20422;-54
2024/02/02 07:17:22;;;;;;;13.10;8.63;;;1.90;99.90;;;;;;5021583;28;20518;-54
2024/02/02 07:19:48;;;;;;;15.80;9.00;;;1.90;99.90;;;;;;5019401;28;20426;-55
2024/02/02 07:22:25;;;;;;;14.30;8.80;;;2.00;99.90;;;;;;5026466;28;20464;-54
2024/02/02 07:24:51;;;;;;;13.47;9.13;;;2.10;99.90;;;;;;5026262;28;20677;-55
2024/02/02 07:27:58;;;;;;;20.77;10.27;;;2.10;99.90;;;;;;5019644;28;20450;-55
2024/02/02 07:30:27;;;;;;;14.30;8.50;;;2.20;99.90;;;;;;5018375;28;20209;-54
2024/02/02 07:32:52;;;;;;;16.10;9.10;;;2.20;99.90;;;;;;5020176;28;20433;-54
2024/02/02 07:35:30;;;;;;;22.60;11.40;;;2.20;99.90;;;;;;5021201;28;20446;-54
2024/02/02 07:37:59;;;;;;;23.97;13.30;;;2.20;99.90;;;;;;5023500;28;20289;-54
2024/02/02 07:40:42;;;;;;;20.77;11.33;;;2.30;99.90;;;;;;5021578;28;20467;-53
2024/02/02 07:43:08;;;;;;;23.33;11.23;;;2.30;99.90;;;;;;5025751;28;20832;-54
2024/02/02 07:45:33;;;;;;;16.90;10.30;;;2.30;99.90;;;;;;5024723;28;20462;-54
2024/02/02 07:47:59;;;;;;;20.40;9.70;;;2.20;99.90;;;;;;5025113;28;20183;-54
2024/02/02 07:50:25;;;;;;;19.47;9.20;;;2.20;99.90;;;;;;5022283;28;20196;-55
2024/02/02 07:52:50;;;;;;;18.77;11.00;;;2.20;99.90;;;;;;5018545;28;20179;-53
2024/02/02 07:55:16;;;;;;;17.03;9.80;;;2.20;99.90;;;;;;5022088;28;20188;-55
2024/02/02 07:57:42;;;;;;;18.10;9.90;;;2.20;99.90;;;;;;5022522;28;20222;-54
2024/02/02 08:00:09;;;;;;;18.43;9.00;;;2.20;99.90;;;;;;5024619;28;20233;-55
2024/02/02 08:02:34;;;;;;;18.37;10.13;;;2.30;99.90;;;;;;5022284;28;20486;-56
2024/02/02 08:05:03;;;;;;;16.83;9.37;;;2.30;99.90;;;;;;5017509;28;20551;-58
2024/02/02 08:07:28;;;;;;;17.07;10.13;;;2.40;99.90;;;;;;5024376;28;20615;-56
2024/02/02 08:09:54;;;;;;;16.17;8.70;;;2.50;99.90;;;;;;5021644;28;20522;-54
2024/02/02 08:12:20;;;;;;;18.03;10.13;;;2.50;99.90;;;;;;5025829;28;20255;-54
2024/02/02 08:14:45;;;;;;;19.17;10.23;;;2.50;99.90;;;;;;5014393;28;20183;-55
2024/02/02 08:17:11;;;;;;;20.07;9.83;;;2.60;99.90;;;;;;5019038;28;20199;-55
2024/02/02 08:19:36;;;;;;;19.20;9.40;;;2.70;99.90;;;;;;5025919;28;20646;-53
2024/02/02 08:22:02;;;;;;;14.30;8.60;;;2.70;99.90;;;;;;5027023;28;20830;-55
2024/02/02 08:24:28;;;;;;;20.00;10.27;;;2.80;99.90;;;;;;5028672;28;20233;-54
2024/02/02 08:26:55;;;;;;;19.57;10.80;;;2.80;99.90;;;;;;5028796;28;20212;-53
2024/02/02 08:29:21;;;;;;;20.60;11.00;;;2.80;99.90;;;;;;5024820;28;20628;-59
2024/02/02 08:31:47;;;;;;;23.90;13.23;;;2.80;99.90;;;;;;5028301;28;20438;-57
2024/02/02 08:34:12;;;;;;;21.80;12.13;;;2.80;99.90;;;;;;5027149;28;20502;-55
2024/02/02 08:36:38;;;;;;;19.30;10.97;;;2.80;99.90;;;;;;5023968;28;20187;-55
2024/02/02 08:39:08;;;;;;;17.23;11.20;;;2.80;99.90;;;;;;5029240;28;20185;-54
2024/02/02 08:41:35;;;;;;;15.83;8.97;;;2.80;99.90;;;;;;5026825;28;20533;-55
2024/02/02 08:44:03;;;;;;;16.33;9.67;;;2.90;99.90;;;;;;5022639;28;20446;-54
2024/02/02 08:46:35;;;;;;;15.87;10.20;;;2.90;99.90;;;;;;5020798;28;20473;-54
2024/02/02 08:49:01;;;;;;;15.13;9.17;;;3.00;99.90;;;;;;5022152;28;20959;-56
2024/02/02 08:51:33;;;;;;;17.07;10.07;;;3.00;99.90;;;;;;5027026;28;21039;-54
2024/02/02 08:54:17;;;;;;;15.13;9.00;;;3.10;99.90;;;;;;5022288;28;21087;-55
2024/02/02 08:57:17;;;;;;;21.63;8.40;;;3.10;99.90;;;;;;5026725;28;20808;-55
2024/02/02 08:59:43;;;;;;;10.80;7.40;;;3.20;99.90;;;;;;5024134;28;20540;-55
2024/02/02 09:02:37;;;;;;;17.23;8.53;;;3.20;99.90;;;;;;5023416;28;20458;-52
2024/02/02 09:05:23;;;;;;;12.20;7.23;;;3.30;99.90;;;;;;5021088;28;20430;-54
2024/02/02 09:08:08;;;;;;;9.97;6.63;;;3.30;99.90;;;;;;5027471;28;20446;-54
2024/02/02 09:10:33;;;;;;;10.03;6.57;;;3.40;99.90;;;;;;5025565;28;21034;-54
2024/02/02 09:13:03;;;;;;;17.73;7.90;;;3.40;99.90;;;;;;5022039;28;20433;-54
2024/02/02 09:15:32;;;;;;;12.60;6.70;;;3.50;99.90;;;;;;5022748;28;20318;-55
2024/02/02 09:17:58;;;;;;;9.77;5.60;;;3.50;99.90;;;;;;5021377;28;20474;-57
2024/02/02 09:20:50;;;;;;;7.70;5.23;;;3.60;99.90;;;;;;5027405;28;20498;-53
2024/02/02 09:23:16;;;;;;;8.97;5.80;;;3.60;99.90;;;;;;5022478;28;20721;-53
2024/02/02 09:25:43;;;;;;;8.50;5.70;;;3.70;99.90;;;;;;5024559;28;20461;-54
2024/02/02 09:28:38;;;;;;;10.00;5.10;;;3.70;99.90;;;;;;5023715;28;21020;-55
2024/02/02 09:31:06;;;;;;;9.23;5.20;;;3.80;99.90;;;;;;5022384;28;20983;-55
2024/02/02 09:33:32;;;;;;;11.60;6.07;;;3.80;99.90;;;;;;5021555;28;20436;-55
2024/02/02 09:35:59;;;;;;;8.40;5.63;;;3.90;99.90;;;;;;5026386;28;20493;-54
2024/02/02 09:38:25;;;;;;;9.33;5.47;;;3.90;99.90;;;;;;5023252;28;20184;-54
2024/02/02 09:41:03;;;;;;;8.03;5.43;;;4.00;99.90;;;;;;5025333;28;20473;-56
2024/02/02 09:43:52;;;;;;;6.47;4.33;;;4.00;99.90;;;;;;5025113;28;20525;-57
2024/02/02 09:46:27;;;;;;;8.20;4.70;;;4.10;99.90;;;;;;5022962;28;20465;-53
2024/02/02 09:49:08;;;;;;;8.70;4.53;;;4.20;99.90;;;;;;5020414;28;20442;-55
2024/02/02 09:51:57;;;;;;;8.70;5.93;;;4.20;99.90;;;;;;5018679;28;20526;-53
2024/02/02 09:54:54;;;;;;;10.87;5.83;;;4.30;99.90;;;;;;5023118;28;20501;-53
2024/02/02 09:57:41;;;;;;;10.60;5.83;;;4.30;99.90;;;;;;5014992;28;20489;-54
2024/02/02 10:00:28;;;;;;;9.23;5.80;;;4.40;99.90;;;;;;5022113;28;20551;-54
2024/02/02 10:03:00;;;;;;;7.93;5.17;;;4.50;99.90;;;;;;5017727;28;20517;-54
2024/02/02 10:05:42;;;;;;;8.93;5.40;;;4.60;99.90;;;;;;5024596;28;20559;-55
2024/02/02 10:08:40;;;;;;;9.50;6.10;;;4.70;99.90;;;;;;5020542;28;20430;-54
2024/02/02 10:11:18;;;;;;;11.27;6.30;;;4.80;99.90;;;;;;5021619;28;20427;-56
2024/02/02 10:14:02;;;;;;;12.30;5.87;;;5.00;99.90;;;;;;5019458;28;20866;-57
2024/02/02 10:16:37;;;;;;;11.77;6.80;;;5.00;99.90;;;;;;5021843;28;20465;-56
2024/02/02 10:19:23;;;;;;;7.70;5.70;;;5.10;99.90;;;;;;5023375;28;20425;-55
2024/02/02 10:22:23;;;;;;;10.43;6.30;;;5.20;99.90;;;;;;5021198;28;20465;-57
2024/02/02 10:25:17;;;;;;;9.93;5.47;;;5.30;99.90;;;;;;5018344;28;20525;-55
2024/02/02 10:28:15;;;;;;;8.70;5.67;;;5.30;99.90;;;;;;5005903;28;20453;-54
2024/02/02 10:30:44;;;;;;;11.83;6.17;;;5.40;99.90;;;;;;5013772;28;20476;-56
2024/02/02 10:33:31;;;;;;;9.03;5.60;;;5.40;99.90;;;;;;5026895;28;20947;-54
2024/02/02 10:36:17;;;;;;;12.63;6.80;;;5.40;99.90;;;;;;5023237;28;20470;-56
2024/02/02 10:39:02;;;;;;;11.07;6.03;;;5.50;99.90;;;;;;5021648;28;21766;-56
2024/02/02 10:42:02;;;;;;;8.13;5.40;;;5.50;99.90;;;;;;5024391;28;20845;-57
2024/02/02 10:44:59;;;;;;;9.97;6.20;;;5.60;99.90;;;;;;5021728;28;20440;-55
2024/02/02 10:47:52;;;;;;;10.27;6.00;;;5.60;99.90;;;;;;5012127;28;20432;-54
2024/02/02 10:50:29;;;;;;;7.47;4.83;;;5.60;99.90;;;;;;5022368;28;20462;-56
2024/02/02 10:53:18;;;;;;;7.63;5.50;;;5.70;99.90;;;;;;5017127;28;20426;-56
2024/02/02 10:56:13;;;;;;;8.93;5.67;;;5.80;99.90;;;;;;5020843;28;20453;-55
2024/02/02 10:59:13;;;;;;;8.50;5.23;;;5.80;99.90;;;;;;5020022;28;20439;-55
2024/02/02 11:01:38;;;;;;;9.90;5.57;;;5.80;99.90;;;;;;5023187;28;20506;-56
2024/02/02 11:04:32;;;;;;;8.83;5.60;;;5.90;99.90;;;;;;5025260;28;20490;-55
2024/02/02 11:07:14;;;;;;;8.30;5.30;;;5.90;99.90;;;;;;5018797;28;20215;-53
2024/02/02 11:10:03;;;;;;;8.57;5.60;;;5.90;99.90;;;;;;5025708;28;20865;-56
2024/02/02 11:12:53;;;;;;;7.47;5.10;;;6.00;99.90;;;;;;5014264;28;20526;-54
2024/02/02 11:15:58;;;;;;;8.10;5.27;;;6.10;99.90;;;;;;5020988;28;20431;-55
2024/02/02 11:19:02;;;;;;;9.10;5.57;;;6.10;99.90;;;;;;4997953;28;20438;-56
2024/02/02 11:21:51;;;;;;;7.40;5.13;;;6.10;99.90;;;;;;5019161;28;20455;-56
2024/02/02 11:24:52;;;;;;;7.73;5.03;;;6.20;99.90;;;;;;5005681;28;20533;-57
2024/02/02 11:27:36;;;;;;;8.63;4.90;;;6.20;99.90;;;;;;5008763;28;20832;-56
2024/02/02 11:30:02;;;;;;;8.90;5.27;;;6.30;99.90;;;;;;5018088;28;20430;-56
2024/02/02 11:32:43;;;;;;;7.67;4.97;;;6.40;99.90;;;;;;5015025;28;20442;-57
2024/02/02 11:35:39;;;;;;;9.70;5.40;;;6.60;99.90;;;;;;5023495;28;20172;-56
2024/02/02 11:38:14;;;;;;;6.90;4.57;;;6.70;99.90;;;;;;5037707;28;20504;-56
2024/02/02 11:40:42;;;;;;;5.47;4.20;;;6.80;99.90;;;;;;5025017;28;20527;-56
2024/02/02 11:43:10;;;;;;;7.73;5.60;;;6.90;99.90;;;;;;5025701;28;20458;-55
2024/02/02 11:45:41;;;;;;;7.10;4.03;;;7.00;99.90;;;;;;5024114;22;20534;-62
2024/02/02 11:48:34;;;;;;;9.63;4.27;;;7.10;99.90;;;;;;4980236;28;20462;-62
2024/02/02 11:51:01;;;;;;;6.50;4.17;;;7.10;99.90;;;;;;4977697;28;20645;-62
2024/02/02 11:53:36;;;;;;;7.47;4.90;;;7.20;99.90;;;;;;4988033;28;20429;-60
2024/02/02 11:56:35;;;;;;;8.43;5.47;;;7.30;99.90;;;;;;4975557;28;20492;-58
2024/02/02 11:59:11;;;;;;;7.37;5.10;;;7.30;99.90;;;;;;4973121;28;20492;-58
2024/02/02 12:01:45;;;;;;;7.20;5.07;;;7.40;99.90;;;;;;4966172;28;20576;-60
2024/02/02 12:04:36;;;;;;;6.70;4.63;;;7.40;99.90;;;;;;4972698;28;20408;-61
2024/02/02 12:07:17;;;;;;;5.80;4.30;;;7.40;99.90;;;;;;4966149;28;20946;-60
2024/02/02 12:09:44;;;;;;;5.80;4.00;;;7.40;99.90;;;;;;4972496;28;20413;-59
2024/02/02 12:12:23;;;;;;;3.90;3.47;;;7.40;99.90;;;;;;4976669;28;20894;-60
2024/02/02 12:14:51;;;;;;;5.57;4.20;;;7.50;99.90;;;;;;4969977;28;20463;-60
2024/02/02 12:17:17;;;;;;;5.90;4.07;;;7.60;99.90;;;;;;4970096;28;20433;-60
2024/02/02 12:19:44;;;;;;;6.00;4.17;;;7.60;99.90;;;;;;4981662;28;20447;-60
2024/02/02 12:22:11;;;;;;;5.97;3.93;;;7.60;99.90;;;;;;4974297;28;20940;-61
2024/02/02 12:24:38;;;;;;;5.30;3.80;;;7.70;99.90;;;;;;4965804;28;20476;-59
2024/02/02 12:27:04;;;;;;;4.80;3.07;;;7.70;99.90;;;;;;4963340;28;20521;-59
2024/02/02 12:29:29;;;;;;;4.83;3.30;;;7.80;99.90;;;;;;4968034;28;20460;-60
2024/02/02 12:31:55;;;;;;;5.37;3.50;;;8.00;99.90;;;;;;4976977;28;20997;-60
2024/02/02 12:34:22;;;;;;;5.07;3.53;;;8.00;99.90;;;;;;4973755;28;20300;-60
2024/02/02 12:36:47;;;;;;;5.80;3.70;;;8.10;99.90;;;;;;4969438;28;20256;-59
2024/02/02 12:39:13;;;;;;;4.27;3.63;;;8.10;99.90;;;;;;4965508;28;20555;-59
2024/02/02 12:41:39;;;;;;;3.17;2.87;;;8.20;99.90;;;;;;4964905;28;20178;-60
2024/02/02 12:44:07;;;;;;;7.70;3.70;;;8.20;99.90;;;;;;4965870;28;20182;-57
2024/02/02 12:46:45;;;;;;;5.40;3.77;;;8.20;99.90;;;;;;4964220;28;20494;-61
2024/02/02 12:49:11;;;;;;;6.30;4.27;;;8.10;99.90;;;;;;4962102;28;20433;-57
2024/02/02 12:51:37;;;;;;;5.23;3.40;;;8.10;99.90;;;;;;4967470;28;20436;-57
2024/02/02 12:54:03;;;;;;;6.07;4.43;;;8.10;99.90;;;;;;4966919;28;20421;-58
2024/02/02 12:56:29;;;;;;;6.60;4.30;;;8.10;99.90;;;;;;4963804;28;20183;-58
2024/02/02 12:58:55;;;;;;;6.30;4.30;;;8.10;99.90;;;;;;4962334;28;20451;-61
2024/02/02 13:01:21;;;;;;;8.80;5.00;;;8.10;99.90;;;;;;4966756;28;20193;-57
2024/02/02 13:03:47;;;;;;;8.60;5.20;;;8.00;99.90;;;;;;4962650;28;20450;-58
2024/02/02 13:06:14;;;;;;;8.50;5.10;;;8.10;99.90;;;;;;4962461;28;20469;-58